Tipperary, Ireland
Current Conditions -  °F | °C
As of 6:30 PM on Friday 24 Oct 2014 (Local Time) from EINN Reporting Station
Rain Showers Rain Showers  
Wind Chill: 50°   Ceiling: 3500
Heat Index: 50°   Visibility: 5mi
Dew Point: 48°   Wind: 15mph
Humidity: 94%   Direction: 260°W
Pressure: 29.88"   Gusts: NA
Location:  52.49°N, 8.17°W
Report Text: EINN 241830Z 26013KT 8000 -SHRA FEW014 SCT018CB BKN035 10/09 Q1012 NOSIG
Loading
Personal Weather Stations






























Interactive Weather Map New forecast layout! Learn more

10-Day Weather Forecast

Advertisements
Track Severe Weather on mobile